createdAt,value
2019-01-23T00:01:49.206Z,79.80
2019-01-23T00:04:16.586Z,79.98
2019-01-23T00:06:43.982Z,79.85
2019-01-23T00:09:11.447Z,79.77
2019-01-23T00:11:38.798Z,79.55
2019-01-23T00:14:06.183Z,79.33
2019-01-23T00:16:33.537Z,79.17
2019-01-23T00:19:01.020Z,79.22
2019-01-23T00:21:28.394Z,79.04
2019-01-23T00:23:55.769Z,79.14
2019-01-23T00:26:23.198Z,78.82
2019-01-23T00:28:50.567Z,78.60
2019-01-23T00:31:17.944Z,78.19
2019-01-23T00:33:45.314Z,78.32
2019-01-23T00:36:12.664Z,78.07
2019-01-23T00:38:40.063Z,77.93
2019-01-23T00:41:07.435Z,77.76
2019-01-23T00:43:34.907Z,77.72
2019-01-23T00:46:02.265Z,77.44
2019-01-23T00:48:29.656Z,77.98
2019-01-23T00:50:57.023Z,78.40
2019-01-23T00:53:24.410Z,78.84
2019-01-23T00:55:51.801Z,79.21
2019-01-23T00:58:19.161Z,78.73
2019-01-23T01:00:46.566Z,78.29
2019-01-23T01:03:13.953Z,78.39
2019-01-23T01:05:41.521Z,78.69
2019-01-23T01:08:08.867Z,78.80
2019-01-23T01:10:36.234Z,78.90
2019-01-23T01:13:03.722Z,78.50
2019-01-23T01:15:31.120Z,77.83
2019-01-23T01:17:58.519Z,77.28
2019-01-23T01:20:25.860Z,77.48
2019-01-23T01:22:53.250Z,77.56
2019-01-23T01:25:20.631Z,77.74
2019-01-23T01:27:47.984Z,77.71
2019-01-23T01:30:16.705Z,77.04
2019-01-23T01:32:44.071Z,76.86
2019-01-23T01:35:11.483Z,76.73
2019-01-23T01:37:38.926Z,76.60
2019-01-23T01:40:07.344Z,76.44
2019-01-23T01:42:34.691Z,76.36
2019-01-23T01:45:02.088Z,76.51
2019-01-23T01:47:29.478Z,76.68
2019-01-23T01:49:56.893Z,77.91
2019-01-23T01:52:24.262Z,78.75
2019-01-23T01:54:51.643Z,79.12
2019-01-23T01:57:18.994Z,78.66
2019-01-23T01:59:46.358Z,78.67
2019-01-23T02:02:13.738Z,78.73
2019-01-23T02:04:41.107Z,79.04
2019-01-23T02:07:08.512Z,78.77
2019-01-23T02:09:35.855Z,78.84
2019-01-23T02:12:03.438Z,78.94
2019-01-23T02:14:30.810Z,79.46
2019-01-23T02:16:58.204Z,79.44
2019-01-23T02:19:25.551Z,79.15
2019-01-23T02:21:52.954Z,78.87
2019-01-23T02:24:20.287Z,78.99
2019-01-23T02:26:47.655Z,79.21
2019-01-23T02:29:15.056Z,79.09
2019-01-23T02:31:42.403Z,79.16
2019-01-23T02:34:10.156Z,78.70
2019-01-23T02:36:37.509Z,78.93
2019-01-23T02:39:06.359Z,78.54
2019-01-23T02:41:33.756Z,78.64
2019-01-23T02:44:01.112Z,79.10
2019-01-23T02:46:28.492Z,78.98
2019-01-23T02:48:55.894Z,78.84
2019-01-23T02:51:23.339Z,78.27
2019-01-23T02:53:50.684Z,77.84
2019-01-23T02:56:18.074Z,78.05
2019-01-23T02:58:45.533Z,78.65
2019-01-23T03:01:13.006Z,78.78
2019-01-23T03:03:40.398Z,78.87
2019-01-23T03:06:07.736Z,78.92
2019-01-23T03:08:35.108Z,78.75
2019-01-23T03:11:02.510Z,78.51
2019-01-23T03:13:29.871Z,78.03
2019-01-23T03:15:57.303Z,78.06
2019-01-23T03:18:24.676Z,77.83
2019-01-23T03:20:52.082Z,77.91
2019-01-23T03:23:19.484Z,78.00
2019-01-23T03:25:47.029Z,77.89
2019-01-23T03:28:14.371Z,77.44
2019-01-23T03:30:41.724Z,77.08
2019-01-23T03:33:09.109Z,77.18
2019-01-23T03:35:36.463Z,77.20
2019-01-23T03:38:03.839Z,77.78
2019-01-23T03:40:31.530Z,77.53
2019-01-23T03:42:58.895Z,77.44
2019-01-23T03:45:26.334Z,77.72
2019-01-23T03:47:53.758Z,77.85
2019-01-23T03:50:21.208Z,77.47
2019-01-23T03:52:48.547Z,77.22
2019-01-23T03:55:16.134Z,77.25
2019-01-23T03:57:43.486Z,76.95
2019-01-23T04:00:12.159Z,76.93
2019-01-23T04:02:39.678Z,77.01
2019-01-23T04:05:07.565Z,78.09
2019-01-23T04:07:34.924Z,78.35
2019-01-23T04:10:03.329Z,78.19
2019-01-23T04:12:30.735Z,78.41
2019-01-23T04:14:58.082Z,78.87
2019-01-23T04:17:25.447Z,79.23
2019-01-23T04:19:52.847Z,79.24
2019-01-23T04:22:20.244Z,79.30
2019-01-23T04:24:47.620Z,79.46
2019-01-23T04:27:14.995Z,79.44
2019-01-23T04:29:42.469Z,79.58
2019-01-23T04:32:09.846Z,79.36
2019-01-23T04:34:37.193Z,79.33
2019-01-23T04:37:04.958Z,79.27
2019-01-23T04:39:32.305Z,78.94
2019-01-23T04:41:59.659Z,78.55
2019-01-23T04:44:27.163Z,77.96
2019-01-23T04:46:54.561Z,78.30
2019-01-23T04:49:22.234Z,78.78
2019-01-23T04:51:57.508Z,78.83
2019-01-23T04:54:24.854Z,79.65
2019-01-23T04:56:52.186Z,79.82
2019-01-23T04:59:19.581Z,79.61
2019-01-23T05:01:46.934Z,79.25
2019-01-23T05:04:14.327Z,79.95
2019-01-23T05:06:41.704Z,80.41
2019-01-23T05:09:09.068Z,80.90
2019-01-23T05:11:36.446Z,81.48
2019-01-23T05:14:04.355Z,83.27
2019-01-23T05:16:31.740Z,82.77
2019-01-23T05:18:59.194Z,82.12
2019-01-23T05:21:26.531Z,80.95
2019-01-23T05:23:54.039Z,80.50
2019-01-23T05:26:21.420Z,80.41
2019-01-23T05:28:48.895Z,80.34
2019-01-23T05:31:16.271Z,80.83
2019-01-23T05:33:43.616Z,80.99
2019-01-23T05:36:11.082Z,80.79
2019-01-23T05:38:38.450Z,80.76
2019-01-23T05:41:05.848Z,80.85
2019-01-23T05:43:33.199Z,80.67
2019-01-23T05:46:00.691Z,80.42
2019-01-23T05:48:28.069Z,81.10
2019-01-23T05:50:55.461Z,81.21
2019-01-23T05:53:23.080Z,81.28
2019-01-23T05:55:50.439Z,81.56
2019-01-23T05:58:17.795Z,81.97
2019-01-23T06:00:45.290Z,81.83
2019-01-23T06:03:12.664Z,81.96
2019-01-23T06:05:40.103Z,81.80
2019-01-23T06:08:07.498Z,81.61
2019-01-23T06:10:35.007Z,81.58
2019-01-23T06:13:02.456Z,81.55
2019-01-23T06:15:29.820Z,81.40
2019-01-23T06:17:57.327Z,81.24
2019-01-23T06:20:24.794Z,81.23
2019-01-23T06:22:52.238Z,81.41
2019-01-23T06:25:19.649Z,81.28
2019-01-23T06:27:47.126Z,81.04
2019-01-23T06:30:15.644Z,81.00
2019-01-23T06:32:43.046Z,80.44
2019-01-23T06:35:11.408Z,80.31
2019-01-23T06:37:38.758Z,79.85
2019-01-23T06:40:06.797Z,80.13
2019-01-23T06:42:34.475Z,80.54
2019-01-23T06:45:01.864Z,80.25
2019-01-23T06:47:29.222Z,80.36
2019-01-23T06:49:56.600Z,80.51
2019-01-23T06:52:23.979Z,80.62
2019-01-23T06:54:51.331Z,80.98
2019-01-23T06:57:18.711Z,81.04
2019-01-23T06:59:46.219Z,81.16
2019-01-23T07:02:13.607Z,81.13
2019-01-23T07:04:41.080Z,80.90
2019-01-23T07:07:08.579Z,81.04
2019-01-23T07:09:36.004Z,81.76
2019-01-23T07:12:03.382Z,82.21
2019-01-23T07:14:30.795Z,82.38
2019-01-23T07:16:58.176Z,82.01
2019-01-23T07:19:25.595Z,81.75
2019-01-23T07:21:53.354Z,81.39
2019-01-23T07:24:20.742Z,81.50
2019-01-23T07:26:48.185Z,81.22
2019-01-23T07:29:15.575Z,80.99
2019-01-23T07:31:42.959Z,81.52
2019-01-23T07:34:10.331Z,81.62
2019-01-23T07:36:38.163Z,82.05
2019-01-23T07:39:07.556Z,81.72
2019-01-23T07:41:34.916Z,81.38
2019-01-23T07:44:02.520Z,80.90
2019-01-23T07:46:29.919Z,80.33
2019-01-23T07:48:57.293Z,79.72
2019-01-23T07:51:24.702Z,79.40
2019-01-23T07:53:52.080Z,78.80
2019-01-23T07:56:19.494Z,77.98
2019-01-23T07:58:46.867Z,77.52
2019-01-23T08:01:14.243Z,76.94
2019-01-23T08:03:41.627Z,76.60
2019-01-23T08:06:09.266Z,76.25
2019-01-23T08:08:36.640Z,75.64
2019-01-23T08:11:04.023Z,75.28
2019-01-23T08:13:31.515Z,75.40
2019-01-23T08:15:58.895Z,72.94
2019-01-23T08:18:26.303Z,70.10
2019-01-23T08:20:53.628Z,67.85
2019-01-23T08:23:21.063Z,65.96
2019-01-23T08:25:48.484Z,66.93
2019-01-23T08:28:15.837Z,67.53
2019-01-23T08:30:43.210Z,66.48
2019-01-23T08:33:10.628Z,64.73
2019-01-23T08:35:37.995Z,63.54
2019-01-23T08:38:05.366Z,62.89
2019-01-23T08:40:32.727Z,62.33
2019-01-23T08:43:00.106Z,62.00
2019-01-23T08:45:27.466Z,60.56
2019-01-23T08:47:54.842Z,57.57
2019-01-23T08:50:23.642Z,55.35
2019-01-23T08:52:51.031Z,51.29
2019-01-23T08:55:18.403Z,47.62
2019-01-23T08:57:45.746Z,45.58
2019-01-23T09:00:13.253Z,44.32
2019-01-23T09:02:40.608Z,42.83
2019-01-23T09:05:08.099Z,41.83
2019-01-23T09:07:35.443Z,38.03
2019-01-23T09:10:04.013Z,36.59
2019-01-23T09:12:31.419Z,34.88
2019-01-23T09:14:58.810Z,36.02
2019-01-23T09:17:26.194Z,34.79
2019-01-23T09:19:53.592Z,36.64
2019-01-23T09:22:20.983Z,37.66
2019-01-23T09:24:48.383Z,36.88
2019-01-23T09:27:15.747Z,37.14
2019-01-23T09:29:43.119Z,40.19
2019-01-23T09:32:36.194Z,42.86
2019-01-23T09:35:16.991Z,46.46
2019-01-23T09:37:55.784Z,50.24
2019-01-23T09:40:44.402Z,53.53
2019-01-23T09:43:40.377Z,56.41
2019-01-23T09:46:30.293Z,57.57
2019-01-23T09:49:10.002Z,57.93
2019-01-23T09:51:56.863Z,58.21
2019-01-23T09:54:24.281Z,58.09
2019-01-23T09:56:51.623Z,56.27
2019-01-23T09:59:18.993Z,55.88
2019-01-23T10:01:46.411Z,52.96
2019-01-23T10:04:13.782Z,49.82
2019-01-23T10:06:41.190Z,46.92
2019-01-23T10:09:09.251Z,42.83
2019-01-23T10:11:36.710Z,38.44
2019-01-23T10:14:04.223Z,33.76
2019-01-23T10:16:31.559Z,32.78
2019-01-23T10:18:58.932Z,31.16
2019-01-23T10:21:26.419Z,30.71
2019-01-23T10:23:53.772Z,28.01
2019-01-23T10:26:21.419Z,28.06
2019-01-23T10:28:48.916Z,27.89
2019-01-23T10:31:16.283Z,24.86
2019-01-23T10:33:43.650Z,25.31
2019-01-23T10:36:11.024Z,26.84
2019-01-23T10:38:38.422Z,26.18
2019-01-23T10:41:05.860Z,27.47
2019-01-23T10:43:33.250Z,27.45
2019-01-23T10:46:03.586Z,26.42
2019-01-23T10:48:37.813Z,28.66
2019-01-23T10:51:00.352Z,27.52
2019-01-23T10:53:27.728Z,25.41
2019-01-23T10:55:55.211Z,26.96
2019-01-23T10:58:22.582Z,28.35
2019-01-23T11:00:50.046Z,30.52
2019-01-23T11:03:17.520Z,30.36
2019-01-23T11:05:44.885Z,31.92
2019-01-23T11:08:12.235Z,34.44
2019-01-23T11:10:39.610Z,36.44
2019-01-23T11:13:06.998Z,37.83
2019-01-23T11:15:34.398Z,39.91
2019-01-23T11:18:01.856Z,38.20
2019-01-23T11:20:29.233Z,35.09
2019-01-23T11:22:56.721Z,32.42
2019-01-23T11:25:24.082Z,31.62
2019-01-23T11:27:51.469Z,29.93
2019-01-23T11:30:20.018Z,29.19
2019-01-23T11:32:47.563Z,29.01
2019-01-23T11:35:15.312Z,27.82
2019-01-23T11:37:42.936Z,27.21
2019-01-23T11:40:13.236Z,27.37
2019-01-23T11:42:40.724Z,26.70
2019-01-23T11:45:10.369Z,25.82
2019-01-23T11:47:37.806Z,27.17
2019-01-23T11:50:05.899Z,28.45
2019-01-23T11:52:33.399Z,29.72
2019-01-23T11:55:00.779Z,32.11
2019-01-23T11:57:28.284Z,34.03
2019-01-23T11:59:55.667Z,35.65
2019-01-23T12:02:23.072Z,36.94
2019-01-23T12:04:50.448Z,39.42
2019-01-23T12:07:17.870Z,40.33
2019-01-23T12:09:45.355Z,41.17
2019-01-23T12:12:12.742Z,42.10
2019-01-23T12:14:40.139Z,42.95
2019-01-23T12:17:07.539Z,43.08
2019-01-23T12:19:35.019Z,44.96
2019-01-23T12:22:02.482Z,45.27
2019-01-23T12:24:29.852Z,46.11
2019-01-23T12:26:57.250Z,47.03
2019-01-23T12:29:24.652Z,46.65
2019-01-23T12:31:52.263Z,47.49
2019-01-23T12:34:19.619Z,47.58
2019-01-23T12:36:46.977Z,48.96
2019-01-23T12:39:14.367Z,48.90
2019-01-23T12:41:41.768Z,49.10
2019-01-23T12:44:09.368Z,48.94
2019-01-23T12:46:36.770Z,48.85
2019-01-23T12:49:04.119Z,50.33
2019-01-23T12:51:31.479Z,50.69
2019-01-23T12:53:58.954Z,51.21
2019-01-23T12:56:26.435Z,50.45
2019-01-23T12:58:53.823Z,51.07
2019-01-23T13:01:21.187Z,50.67
2019-01-23T13:03:48.557Z,50.82
2019-01-23T13:06:15.966Z,50.79
2019-01-23T13:08:43.315Z,51.10
2019-01-23T13:11:10.679Z,50.73
2019-01-23T13:13:38.097Z,51.91
2019-01-23T13:16:05.460Z,52.48
2019-01-23T13:18:32.900Z,52.06
2019-01-23T13:21:00.346Z,52.39
2019-01-23T13:23:27.721Z,53.09
2019-01-23T13:25:55.109Z,52.49
2019-01-23T13:28:22.574Z,52.94
2019-01-23T13:30:50.050Z,53.73
2019-01-23T13:33:17.695Z,54.31
2019-01-23T13:35:45.168Z,55.66
2019-01-23T13:38:13.919Z,56.75
2019-01-23T13:40:41.331Z,56.43
2019-01-23T13:43:08.802Z,57.73
2019-01-23T13:45:36.204Z,58.97
2019-01-23T13:48:04.625Z,58.67
2019-01-23T13:50:32.104Z,58.95
2019-01-23T13:52:59.531Z,59.20
2019-01-23T13:55:27.012Z,59.16
2019-01-23T13:57:54.374Z,60.09
2019-01-23T14:00:23.174Z,60.47
2019-01-23T14:02:50.544Z,61.24
2019-01-23T14:05:17.986Z,61.03
2019-01-23T14:07:45.460Z,62.07
2019-01-23T14:10:13.007Z,61.45
2019-01-23T14:12:40.394Z,61.03
2019-01-23T14:15:09.751Z,62.57
2019-01-23T14:17:37.150Z,62.17
2019-01-23T14:20:05.130Z,62.58
2019-01-23T14:22:32.503Z,62.78
2019-01-23T14:24:59.905Z,63.11
2019-01-23T14:27:27.297Z,63.32
2019-01-23T14:29:54.655Z,63.31
2019-01-23T14:32:22.094Z,63.91
2019-01-23T14:34:49.548Z,63.89
2019-01-23T14:37:17.027Z,64.45
2019-01-23T14:39:44.759Z,65.35
2019-01-23T14:42:12.116Z,65.68
2019-01-23T14:44:39.483Z,66.05
2019-01-23T14:47:07.231Z,66.02
2019-01-23T14:49:34.725Z,66.41
2019-01-23T14:52:02.161Z,67.67
2019-01-23T14:54:29.588Z,67.46
2019-01-23T14:56:57.022Z,67.52
2019-01-23T14:59:24.443Z,68.89
2019-01-23T15:01:51.834Z,68.59
2019-01-23T15:04:19.230Z,69.36
2019-01-23T15:06:46.599Z,69.28
2019-01-23T15:09:13.959Z,69.23
2019-01-23T15:11:41.391Z,69.28
2019-01-23T15:14:08.763Z,69.44
2019-01-23T15:16:36.128Z,69.87
2019-01-23T15:19:04.070Z,70.44
2019-01-23T15:21:31.611Z,70.32
2019-01-23T15:23:58.991Z,70.45
2019-01-23T15:26:26.399Z,70.23
2019-01-23T15:28:53.882Z,69.74
2019-01-23T15:31:21.346Z,70.08
2019-01-23T15:33:48.728Z,70.40
2019-01-23T15:36:16.219Z,70.79
2019-01-23T15:38:43.589Z,70.63
2019-01-23T15:41:11.024Z,70.63
2019-01-23T15:43:38.414Z,71.07
2019-01-23T15:46:05.834Z,71.49
2019-01-23T15:48:33.333Z,71.85
2019-01-23T15:51:00.875Z,72.31
2019-01-23T15:53:28.264Z,72.55
2019-01-23T15:55:57.120Z,72.81
2019-01-23T15:58:24.745Z,72.74
2019-01-23T16:00:52.116Z,73.49
2019-01-23T16:03:19.563Z,73.73
2019-01-23T16:05:47.012Z,73.56
2019-01-23T16:08:14.405Z,73.44
2019-01-23T16:10:42.286Z,73.82
2019-01-23T16:13:09.827Z,74.50
2019-01-23T16:15:37.261Z,74.31
2019-01-23T16:18:04.647Z,74.52
2019-01-23T16:20:32.034Z,74.60
2019-01-23T16:22:59.419Z,74.49
2019-01-23T16:25:29.832Z,74.75
2019-01-23T16:27:57.229Z,74.69
2019-01-23T16:30:29.839Z,74.64
2019-01-23T16:32:58.134Z,74.88
2019-01-23T16:35:25.596Z,74.58
2019-01-23T16:37:53.523Z,74.35
2019-01-23T16:40:20.982Z,74.35
2019-01-23T16:42:48.387Z,74.52
2019-01-23T16:45:16.002Z,74.49
2019-01-23T16:47:43.754Z,74.42
2019-01-23T16:50:13.334Z,74.45
2019-01-23T16:52:40.805Z,74.35
2019-01-23T16:55:08.386Z,74.52
2019-01-23T16:57:35.906Z,74.07
2019-01-23T17:00:04.235Z,73.73
2019-01-23T17:02:31.625Z,74.39
2019-01-23T17:04:59.103Z,74.17
2019-01-23T17:07:26.537Z,74.49
2019-01-23T17:09:54.131Z,74.47
2019-01-23T17:12:21.658Z,73.90
2019-01-23T17:14:49.313Z,74.15
2019-01-23T17:17:16.815Z,74.75
2019-01-23T17:19:44.230Z,74.64
2019-01-23T17:22:11.631Z,74.58
2019-01-23T17:24:39.043Z,74.36
2019-01-23T17:27:06.492Z,74.38
2019-01-23T17:29:34.018Z,74.64
2019-01-23T17:32:01.398Z,74.59
2019-01-23T17:34:28.843Z,74.71
2019-01-23T17:36:58.979Z,75.13
2019-01-23T17:39:26.477Z,74.87
2019-01-23T17:41:53.932Z,75.11
2019-01-23T17:44:21.288Z,74.92
2019-01-23T17:46:48.891Z,75.21
2019-01-23T17:49:16.277Z,75.26
2019-01-23T17:51:43.688Z,75.24
2019-01-23T17:54:11.175Z,75.33
2019-01-23T17:56:38.607Z,75.27
2019-01-23T17:59:06.009Z,75.12
2019-01-23T18:01:33.803Z,74.95
2019-01-23T18:04:01.202Z,75.39
2019-01-23T18:06:28.726Z,75.42
2019-01-23T18:08:56.448Z,75.18
2019-01-23T18:11:23.915Z,75.08
2019-01-23T18:13:51.316Z,75.18
2019-01-23T18:16:18.739Z,75.11
2019-01-23T18:18:46.217Z,75.39
2019-01-23T18:21:13.971Z,75.38
2019-01-23T18:23:41.436Z,74.96
2019-01-23T18:26:08.812Z,74.91
2019-01-23T18:28:36.231Z,75.30
2019-01-23T18:31:09.512Z,75.33
2019-01-23T18:33:44.011Z,75.44
2019-01-23T18:36:17.563Z,75.21
2019-01-23T18:38:53.719Z,75.31
2019-01-23T18:41:43.712Z,75.35
2019-01-23T18:44:23.399Z,75.52
2019-01-23T18:46:57.698Z,75.37
2019-01-23T18:49:38.993Z,75.23
2019-01-23T18:52:10.570Z,75.48
2019-01-23T18:54:38.036Z,75.00
2019-01-23T18:57:06.585Z,74.89
2019-01-23T18:59:33.984Z,74.90
2019-01-23T19:02:01.468Z,74.83
2019-01-23T19:04:29.065Z,75.32
2019-01-23T19:06:56.534Z,75.35
2019-01-23T19:09:23.937Z,75.29
2019-01-23T19:11:51.385Z,75.53
2019-01-23T19:14:24.441Z,75.58
2019-01-23T19:16:48.231Z,75.72
2019-01-23T19:19:16.011Z,75.35
2019-01-23T19:21:43.425Z,75.28
2019-01-23T19:24:10.892Z,75.67
2019-01-23T19:26:38.419Z,75.92
2019-01-23T19:29:05.953Z,75.89
2019-01-23T19:31:33.351Z,75.78
2019-01-23T19:34:00.849Z,75.72
2019-01-23T19:36:28.351Z,74.93
2019-01-23T19:38:56.058Z,75.16
2019-01-23T19:41:23.519Z,75.38
2019-01-23T19:43:50.983Z,75.32
2019-01-23T19:46:18.504Z,75.16
2019-01-23T19:48:45.972Z,75.04
2019-01-23T19:51:13.479Z,74.77
2019-01-23T19:53:40.941Z,74.69
2019-01-23T19:56:08.440Z,75.07
2019-01-23T19:58:35.906Z,75.62
2019-01-23T20:01:03.635Z,75.88
2019-01-23T20:03:31.067Z,75.57
2019-01-23T20:05:58.459Z,75.88
2019-01-23T20:08:25.907Z,75.63
2019-01-23T20:10:53.434Z,75.64
2019-01-23T20:13:20.850Z,75.21
2019-01-23T20:15:48.235Z,75.30
2019-01-23T20:18:15.623Z,75.37
2019-01-23T20:20:43.176Z,75.30
2019-01-23T20:23:10.614Z,75.34
2019-01-23T20:25:38.097Z,75.02
2019-01-23T20:28:07.147Z,75.15
2019-01-23T20:30:35.749Z,75.25
2019-01-23T20:33:03.411Z,75.24
2019-01-23T20:35:30.912Z,75.31
2019-01-23T20:37:58.484Z,75.59
2019-01-23T20:40:25.958Z,75.65
2019-01-23T20:42:53.498Z,75.45
2019-01-23T20:45:20.975Z,76.08
2019-01-23T20:47:48.699Z,75.53
2019-01-23T20:50:17.998Z,75.77
2019-01-23T20:52:45.485Z,75.94
2019-01-23T20:55:12.866Z,75.64
2019-01-23T20:57:40.283Z,75.71
2019-01-23T21:00:10.561Z,76.14
2019-01-23T21:02:38.097Z,76.58
2019-01-23T21:05:06.112Z,77.07
2019-01-23T21:07:33.514Z,77.37
2019-01-23T21:10:00.951Z,77.13
2019-01-23T21:12:28.364Z,77.01
2019-01-23T21:14:55.764Z,76.76
2019-01-23T21:17:23.171Z,76.81
2019-01-23T21:19:50.576Z,76.38
2019-01-23T21:22:17.991Z,76.95
2019-01-23T21:24:45.494Z,77.28
2019-01-23T21:27:12.950Z,77.25
2019-01-23T21:29:40.548Z,77.18
2019-01-23T21:32:08.162Z,76.57
2019-01-23T21:34:35.689Z,76.86
2019-01-23T21:37:03.188Z,77.26
2019-01-23T21:39:30.580Z,77.57
2019-01-23T21:41:57.998Z,77.56
2019-01-23T21:44:25.423Z,77.85
2019-01-23T21:46:52.825Z,77.67
2019-01-23T21:49:20.310Z,77.65
2019-01-23T21:51:47.762Z,77.95
2019-01-23T21:54:15.198Z,77.96
2019-01-23T21:56:42.636Z,77.61
2019-01-23T21:59:10.062Z,77.75
2019-01-23T22:01:37.436Z,77.69
2019-01-23T22:04:04.849Z,77.50
2019-01-23T22:06:32.255Z,77.45
2019-01-23T22:08:59.739Z,77.44
2019-01-23T22:11:27.104Z,77.16
2019-01-23T22:13:54.526Z,76.39
2019-01-23T22:16:21.942Z,76.41
2019-01-23T22:18:49.467Z,76.52
2019-01-23T22:21:16.871Z,77.09
2019-01-23T22:23:44.358Z,77.21
2019-01-23T22:26:11.730Z,77.29
2019-01-23T22:28:39.150Z,77.08
2019-01-23T22:31:06.551Z,77.50
2019-01-23T22:33:33.954Z,77.88
2019-01-23T22:36:01.354Z,77.60
2019-01-23T22:38:28.848Z,77.69
2019-01-23T22:40:56.291Z,78.29
2019-01-23T22:43:23.687Z,78.45
2019-01-23T22:45:51.083Z,78.82
2019-01-23T22:48:18.576Z,78.71
2019-01-23T22:50:45.987Z,78.68
2019-01-23T22:53:13.664Z,78.98
2019-01-23T22:55:41.081Z,79.13
2019-01-23T22:58:08.470Z,79.45
2019-01-23T23:00:58.028Z,79.50
2019-01-23T23:03:25.519Z,79.53
2019-01-23T23:05:53.026Z,79.71
2019-01-23T23:08:20.377Z,79.84
2019-01-23T23:10:47.968Z,80.04
2019-01-23T23:13:15.328Z,79.90
2019-01-23T23:15:42.841Z,79.58
2019-01-23T23:18:10.219Z,79.71
2019-01-23T23:20:37.579Z,80.20
2019-01-23T23:23:04.963Z,80.49
2019-01-23T23:25:32.358Z,80.57
2019-01-23T23:27:59.727Z,80.54
2019-01-23T23:30:27.414Z,80.29
2019-01-23T23:32:54.853Z,80.11
2019-01-23T23:35:22.239Z,80.27
2019-01-23T23:37:50.004Z,80.46
2019-01-23T23:40:17.375Z,80.56
2019-01-23T23:42:44.799Z,80.59
2019-01-23T23:45:12.429Z,80.52
2019-01-23T23:47:39.913Z,80.44
2019-01-23T23:50:08.594Z,80.39
2019-01-23T23:52:35.980Z,80.26
2019-01-23T23:55:03.943Z,80.53
2019-01-23T23:57:31.298Z,80.51
2019-01-23T23:59:58.674Z,80.28
